createdAt,value
2018-07-03T00:00:24.186Z,0
2018-07-03T00:01:05.319Z,0
2018-07-03T00:01:47.348Z,0
2018-07-03T00:02:29.079Z,0
2018-07-03T00:03:10.166Z,0
2018-07-03T00:03:51.375Z,0
2018-07-03T00:04:34.087Z,0
2018-07-03T00:05:16.137Z,0
2018-07-03T00:05:57.307Z,0
2018-07-03T00:06:38.433Z,0
2018-07-03T00:07:19.466Z,0
2018-07-03T00:08:00.542Z,0
2018-07-03T00:08:41.768Z,0
2018-07-03T00:09:22.893Z,0
2018-07-03T00:10:04.007Z,0
2018-07-03T00:10:45.016Z,0
2018-07-03T00:11:25.907Z,0
2018-07-03T00:12:07.051Z,0
2018-07-03T00:12:48.028Z,0
2018-07-03T00:13:29.052Z,0
2018-07-03T00:14:10.312Z,0
2018-07-03T00:14:51.261Z,0
2018-07-03T00:15:33.058Z,0
2018-07-03T00:16:14.171Z,0
2018-07-03T00:16:55.036Z,0
2018-07-03T00:17:36.224Z,0
2018-07-03T00:18:17.268Z,0
2018-07-03T00:18:59.278Z,0
2018-07-03T00:19:40.165Z,0
2018-07-03T00:20:21.292Z,0
2018-07-03T00:21:03.873Z,0
2018-07-03T00:21:45.594Z,0
2018-07-03T00:22:26.598Z,0
2018-07-03T00:23:07.558Z,0
2018-07-03T00:23:49.548Z,0
2018-07-03T00:24:30.700Z,0
2018-07-03T00:25:11.770Z,0
2018-07-03T00:25:52.752Z,0
2018-07-03T00:26:34.564Z,0
2018-07-03T00:27:15.580Z,0
2018-07-03T00:27:56.682Z,0
2018-07-03T00:28:37.647Z,0
2018-07-03T00:29:19.588Z,0
2018-07-03T00:30:00.627Z,0
2018-07-03T00:30:41.871Z,0
2018-07-03T00:31:24.504Z,0
2018-07-03T00:32:06.352Z,0
2018-07-03T00:32:47.450Z,0
2018-07-03T00:33:29.348Z,0
2018-07-03T00:34:10.441Z,0
2018-07-03T00:34:51.554Z,0
2018-07-03T00:35:32.564Z,0
2018-07-03T00:36:13.575Z,0
2018-07-03T00:36:54.726Z,0
2018-07-03T00:37:35.863Z,0
2018-07-03T00:38:16.948Z,0
2018-07-03T00:38:58.008Z,0
2018-07-03T00:39:40.106Z,0
2018-07-03T00:40:21.259Z,0
2018-07-03T00:41:02.436Z,0
2018-07-03T00:41:44.412Z,0
2018-07-03T00:42:25.365Z,0
2018-07-03T00:43:07.021Z,0
2018-07-03T00:43:48.064Z,0
2018-07-03T00:44:29.170Z,0
2018-07-03T00:45:10.815Z,0
2018-07-03T00:45:51.831Z,0
2018-07-03T00:46:33.758Z,0
2018-07-03T00:47:14.636Z,0
2018-07-03T00:47:55.753Z,0
2018-07-03T00:48:36.689Z,0
2018-07-03T00:49:17.838Z,0
2018-07-03T00:49:59.053Z,0
2018-07-03T00:50:40.134Z,0
2018-07-03T00:51:21.772Z,0
2018-07-03T00:52:02.869Z,0
2018-07-03T00:52:43.941Z,0
2018-07-03T00:53:25.056Z,0
2018-07-03T00:54:06.811Z,0
2018-07-03T00:54:47.780Z,0
2018-07-03T00:55:29.771Z,0
2018-07-03T00:56:11.920Z,0
2018-07-03T00:56:53.020Z,0
2018-07-03T00:57:34.203Z,0
2018-07-03T00:58:15.182Z,0
2018-07-03T00:58:57.132Z,0
2018-07-03T00:59:38.331Z,0
2018-07-03T01:00:19.400Z,0
2018-07-03T01:01:00.446Z,0
2018-07-03T01:01:42.264Z,0
2018-07-03T01:02:23.317Z,0
2018-07-03T01:03:05.069Z,0
2018-07-03T01:03:46.216Z,0
2018-07-03T01:04:28.000Z,0
2018-07-03T01:05:09.109Z,0
2018-07-03T01:05:50.366Z,0
2018-07-03T01:06:31.508Z,0
2018-07-03T01:07:14.302Z,0
2018-07-03T01:07:55.360Z,0
2018-07-03T01:08:36.474Z,0
2018-07-03T01:09:17.505Z,0
2018-07-03T01:09:59.415Z,0
2018-07-03T01:10:40.503Z,0
2018-07-03T01:11:22.145Z,0
2018-07-03T01:12:03.235Z,0
2018-07-03T01:12:44.224Z,0
2018-07-03T01:13:25.337Z,0
2018-07-03T01:14:06.602Z,0
2018-07-03T01:14:48.379Z,0
2018-07-03T01:15:29.949Z,0
2018-07-03T01:16:11.007Z,0
2018-07-03T01:16:51.923Z,0
2018-07-03T01:17:33.060Z,0
2018-07-03T01:18:14.074Z,0
2018-07-03T01:18:55.118Z,0
2018-07-03T01:19:36.666Z,0
2018-07-03T01:20:17.807Z,0
2018-07-03T01:20:58.773Z,0
2018-07-03T01:21:39.920Z,0
2018-07-03T01:22:20.968Z,0
2018-07-03T01:23:02.054Z,0
2018-07-03T01:23:43.090Z,0
2018-07-03T01:24:24.239Z,0
2018-07-03T01:25:05.361Z,0
2018-07-03T01:25:47.282Z,0
2018-07-03T01:26:28.510Z,0
2018-07-03T01:27:09.666Z,0
2018-07-03T01:27:50.899Z,0
2018-07-03T01:28:31.916Z,0
2018-07-03T01:29:12.999Z,0
2018-07-03T01:29:53.994Z,0
2018-07-03T01:30:35.132Z,0
2018-07-03T01:31:16.173Z,0
2018-07-03T01:31:57.221Z,0
2018-07-03T01:32:38.225Z,0
2018-07-03T01:33:19.342Z,0
2018-07-03T01:34:01.088Z,0
2018-07-03T01:34:42.677Z,0
2018-07-03T01:35:23.553Z,0
2018-07-03T01:36:04.611Z,0
2018-07-03T01:36:45.606Z,0
2018-07-03T01:37:26.726Z,0
2018-07-03T01:38:07.869Z,0
2018-07-03T01:38:48.882Z,0
2018-07-03T01:39:29.971Z,0
2018-07-03T01:40:11.104Z,0
2018-07-03T01:40:52.210Z,0
2018-07-03T01:41:33.248Z,0
2018-07-03T01:42:14.397Z,0
2018-07-03T01:42:55.372Z,0
2018-07-03T01:43:36.557Z,0
2018-07-03T01:44:17.785Z,0
2018-07-03T01:44:58.882Z,0
2018-07-03T01:45:40.426Z,0
2018-07-03T01:46:21.509Z,0
2018-07-03T01:47:02.557Z,0
2018-07-03T01:47:44.229Z,0
2018-07-03T01:48:25.916Z,0
2018-07-03T01:49:07.018Z,0
2018-07-03T01:49:48.157Z,0
2018-07-03T01:50:30.655Z,0
2018-07-03T01:51:11.847Z,0
2018-07-03T01:51:52.987Z,0
2018-07-03T01:52:34.061Z,0
2018-07-03T01:53:15.157Z,0
2018-07-03T01:53:56.216Z,0
2018-07-03T01:54:37.270Z,0
2018-07-03T01:55:18.300Z,0
2018-07-03T01:55:59.386Z,0
2018-07-03T01:56:40.343Z,0
2018-07-03T01:57:22.878Z,0
2018-07-03T01:58:04.057Z,0
2018-07-03T01:58:44.981Z,0
2018-07-03T01:59:27.172Z,0
2018-07-03T02:00:08.339Z,0
2018-07-03T02:00:49.271Z,0
2018-07-03T02:01:31.186Z,0
2018-07-03T02:02:12.161Z,0
2018-07-03T02:02:54.091Z,0
2018-07-03T02:03:35.292Z,0
2018-07-03T02:04:16.347Z,0
2018-07-03T02:04:57.505Z,0
2018-07-03T02:05:38.670Z,0
2018-07-03T02:06:21.385Z,0
2018-07-03T02:07:02.582Z,0
2018-07-03T02:07:43.874Z,0
2018-07-03T02:08:24.985Z,0
2018-07-03T02:09:06.133Z,0
2018-07-03T02:09:47.204Z,0
2018-07-03T02:10:29.035Z,0
2018-07-03T02:11:10.124Z,0
2018-07-03T02:11:51.174Z,0
2018-07-03T02:12:32.182Z,0
2018-07-03T02:13:13.222Z,0
2018-07-03T02:13:54.390Z,0
2018-07-03T02:14:35.605Z,0
2018-07-03T02:15:16.647Z,0
2018-07-03T02:15:57.880Z,0
2018-07-03T02:16:38.958Z,0
2018-07-03T02:17:20.147Z,0
2018-07-03T02:18:01.058Z,0
2018-07-03T02:18:42.164Z,0
2018-07-03T02:19:23.204Z,0
2018-07-03T02:20:04.364Z,0
2018-07-03T02:20:45.366Z,0
2018-07-03T02:21:26.395Z,0
2018-07-03T02:22:08.142Z,0
2018-07-03T02:22:49.295Z,0
2018-07-03T02:23:30.461Z,0
2018-07-03T02:24:11.640Z,0
2018-07-03T02:24:52.886Z,0
2018-07-03T02:25:34.018Z,0
2018-07-03T02:26:15.242Z,0
2018-07-03T02:26:56.911Z,0
2018-07-03T02:27:38.021Z,0
2018-07-03T02:28:19.693Z,0
2018-07-03T02:29:01.700Z,0
2018-07-03T02:29:42.798Z,0
2018-07-03T02:30:23.931Z,0
2018-07-03T02:31:04.869Z,0
2018-07-03T02:31:46.016Z,0
2018-07-03T02:32:27.186Z,0
2018-07-03T02:33:08.218Z,0
2018-07-03T02:33:49.387Z,0
2018-07-03T02:34:32.439Z,0
2018-07-03T02:35:13.625Z,0
2018-07-03T02:35:54.669Z,0
2018-07-03T02:36:36.850Z,0
2018-07-03T02:37:17.961Z,0
2018-07-03T02:37:59.104Z,0
2018-07-03T02:38:40.093Z,0
2018-07-03T02:39:21.201Z,0
2018-07-03T02:40:02.164Z,0
2018-07-03T02:40:43.357Z,0
2018-07-03T02:41:24.415Z,0
2018-07-03T02:42:05.596Z,0
2018-07-03T02:42:46.610Z,0
2018-07-03T02:43:27.777Z,0
2018-07-03T02:44:08.864Z,0
2018-07-03T02:44:49.909Z,0
2018-07-03T02:45:30.852Z,0
2018-07-03T02:46:12.100Z,0
2018-07-03T02:46:53.820Z,0
2018-07-03T02:47:34.920Z,0
2018-07-03T02:48:15.899Z,0
2018-07-03T02:48:56.751Z,0
2018-07-03T02:49:37.668Z,0
2018-07-03T02:50:18.767Z,0
2018-07-03T02:50:59.834Z,0
2018-07-03T02:51:40.852Z,0
2018-07-03T02:52:23.471Z,0
2018-07-03T02:53:04.670Z,0
2018-07-03T02:53:45.845Z,0
2018-07-03T02:54:27.881Z,0
2018-07-03T02:55:08.784Z,0
2018-07-03T02:55:49.991Z,0
2018-07-03T02:56:31.205Z,0
2018-07-03T02:57:12.404Z,0
2018-07-03T02:57:53.613Z,5
2018-07-03T02:58:34.716Z,5
2018-07-03T02:59:15.905Z,5
2018-07-03T02:59:57.120Z,5
2018-07-03T03:00:38.280Z,5
2018-07-03T03:01:19.433Z,5
2018-07-03T03:02:00.514Z,5
2018-07-03T03:02:41.720Z,5
2018-07-03T03:03:22.908Z,5
2018-07-03T03:04:04.086Z,5
2018-07-03T03:04:45.300Z,5
2018-07-03T03:05:26.311Z,5
2018-07-03T03:06:07.397Z,5
2018-07-03T03:06:48.479Z,5
2018-07-03T03:07:29.500Z,5
2018-07-03T03:08:10.608Z,5
2018-07-03T03:08:52.596Z,5
2018-07-03T03:09:33.528Z,5
2018-07-03T03:10:14.440Z,5
2018-07-03T03:10:55.526Z,5
2018-07-03T03:11:36.468Z,5
2018-07-03T03:12:17.597Z,5
2018-07-03T03:12:58.606Z,5
2018-07-03T03:13:39.813Z,10
2018-07-03T03:14:20.753Z,10
2018-07-03T03:15:01.881Z,10
2018-07-03T03:15:43.057Z,10
2018-07-03T03:16:24.214Z,10
2018-07-03T03:17:05.994Z,10
2018-07-03T03:17:47.037Z,10
2018-07-03T03:18:28.167Z,10
2018-07-03T03:19:09.211Z,10
2018-07-03T03:19:50.284Z,10
2018-07-03T03:20:31.892Z,10
2018-07-03T03:21:12.949Z,10
2018-07-03T03:21:54.077Z,10
2018-07-03T03:22:35.094Z,10
2018-07-03T03:23:16.152Z,10
2018-07-03T03:23:57.229Z,10
2018-07-03T03:24:38.288Z,10
2018-07-03T03:25:19.429Z,10
2018-07-03T03:26:00.487Z,15
2018-07-03T03:26:41.593Z,15
2018-07-03T03:27:23.493Z,15
2018-07-03T03:28:04.676Z,15
2018-07-03T03:28:45.835Z,15
2018-07-03T03:29:26.873Z,15
2018-07-03T03:30:07.911Z,15
2018-07-03T03:30:49.106Z,15
2018-07-03T03:31:30.195Z,15
2018-07-03T03:32:11.313Z,15
2018-07-03T03:32:53.292Z,15
2018-07-03T03:33:34.371Z,15
2018-07-03T03:34:15.491Z,15
2018-07-03T03:34:56.476Z,15
2018-07-03T03:35:37.560Z,15
2018-07-03T03:36:18.757Z,15
2018-07-03T03:36:59.837Z,15
2018-07-03T03:37:41.014Z,15
2018-07-03T03:38:21.944Z,20
2018-07-03T03:39:02.941Z,20
2018-07-03T03:39:43.990Z,20
2018-07-03T03:40:24.958Z,20
2018-07-03T03:41:06.064Z,20
2018-07-03T03:41:47.153Z,20
2018-07-03T03:42:28.169Z,20
2018-07-03T03:43:09.213Z,20
2018-07-03T03:43:51.170Z,20
2018-07-03T03:44:32.245Z,20
2018-07-03T03:45:13.334Z,20
2018-07-03T03:45:54.228Z,20
2018-07-03T03:46:35.154Z,20
2018-07-03T03:47:16.345Z,20
2018-07-03T03:47:57.353Z,20
2018-07-03T03:48:38.396Z,20
2018-07-03T03:49:19.467Z,20
2018-07-03T03:50:00.647Z,25
2018-07-03T03:50:42.592Z,25
2018-07-03T03:51:23.775Z,25
2018-07-03T03:52:04.689Z,25
2018-07-03T03:52:45.697Z,25
2018-07-03T03:53:26.663Z,25
2018-07-03T03:54:07.800Z,25
2018-07-03T03:54:48.878Z,25
2018-07-03T03:55:29.988Z,25
2018-07-03T03:56:11.132Z,25
2018-07-03T03:56:52.261Z,25
2018-07-03T03:57:34.207Z,25
2018-07-03T03:58:15.206Z,25
2018-07-03T03:58:56.243Z,25
2018-07-03T03:59:37.377Z,25
2018-07-03T04:00:18.482Z,25
2018-07-03T04:00:59.711Z,25
2018-07-03T04:01:41.615Z,25
2018-07-03T04:02:22.744Z,30
2018-07-03T04:03:03.853Z,30
2018-07-03T04:03:44.915Z,30
2018-07-03T04:04:26.834Z,30
2018-07-03T04:05:08.041Z,30
2018-07-03T04:05:49.818Z,30
2018-07-03T04:06:31.012Z,30
2018-07-03T04:07:12.129Z,30
2018-07-03T04:07:53.791Z,30
2018-07-03T04:08:35.025Z,30
2018-07-03T04:09:16.934Z,30
2018-07-03T04:09:58.179Z,30
2018-07-03T04:10:39.371Z,30
2018-07-03T04:11:20.464Z,30
2018-07-03T04:12:01.710Z,30
2018-07-03T04:12:43.169Z,30
2018-07-03T04:13:24.102Z,30
2018-07-03T04:14:05.267Z,35
2018-07-03T04:14:46.489Z,35
2018-07-03T04:15:28.544Z,35
2018-07-03T04:16:09.613Z,35
2018-07-03T04:16:51.593Z,35
2018-07-03T04:17:32.821Z,35
2018-07-03T04:18:13.877Z,35
2018-07-03T04:18:55.102Z,35
2018-07-03T04:19:36.978Z,35
2018-07-03T04:20:18.130Z,35
2018-07-03T04:20:59.427Z,35
2018-07-03T04:21:40.511Z,35
2018-07-03T04:22:21.685Z,35
2018-07-03T04:23:02.935Z,35
2018-07-03T04:23:45.420Z,35
2018-07-03T04:24:26.417Z,35
2018-07-03T04:25:07.517Z,40
2018-07-03T04:25:49.479Z,40
2018-07-03T04:26:30.507Z,40
2018-07-03T04:27:12.735Z,40
2018-07-03T04:27:53.731Z,40
2018-07-03T04:28:34.877Z,40
2018-07-03T04:29:16.003Z,40
2018-07-03T04:29:57.857Z,40
2018-07-03T04:30:38.970Z,40
2018-07-03T04:31:20.101Z,40
2018-07-03T04:32:01.260Z,40
2018-07-03T04:32:42.344Z,40
2018-07-03T04:33:23.441Z,40
2018-07-03T04:34:04.512Z,40
2018-07-03T04:34:45.642Z,40
2018-07-03T04:35:26.820Z,40
2018-07-03T04:36:07.991Z,45
2018-07-03T04:36:50.823Z,45
2018-07-03T04:37:31.915Z,45
2018-07-03T04:38:13.055Z,45
2018-07-03T04:38:54.253Z,45
2018-07-03T04:39:35.495Z,45
2018-07-03T04:40:17.145Z,45
2018-07-03T04:40:58.296Z,45
2018-07-03T04:41:39.474Z,45
2018-07-03T04:42:21.231Z,45
2018-07-03T04:43:03.136Z,45
2018-07-03T04:43:44.431Z,45
2018-07-03T04:44:25.542Z,45
2018-07-03T04:45:06.571Z,45
2018-07-03T04:45:48.075Z,45
2018-07-03T04:46:29.400Z,45
2018-07-03T04:47:10.458Z,50
2018-07-03T04:47:51.618Z,50
2018-07-03T04:48:36.034Z,50
2018-07-03T04:49:17.073Z,50
2018-07-03T04:49:57.912Z,50
2018-07-03T04:50:38.860Z,50
2018-07-03T04:51:19.992Z,50
2018-07-03T04:52:00.946Z,50
2018-07-03T04:52:43.647Z,50
2018-07-03T04:53:24.722Z,50
2018-07-03T04:54:05.821Z,50
2018-07-03T04:54:47.794Z,55
2018-07-03T04:55:28.850Z,55
2018-07-03T04:56:09.769Z,50
2018-07-03T04:56:51.767Z,50
2018-07-03T04:57:32.619Z,55
2018-07-03T04:58:13.610Z,55
2018-07-03T04:58:55.269Z,55
2018-07-03T04:59:36.907Z,55
2018-07-03T05:00:17.840Z,55
2018-07-03T05:00:59.002Z,55
2018-07-03T05:01:40.077Z,55
2018-07-03T05:02:21.175Z,55
2018-07-03T05:03:01.908Z,55
2018-07-03T05:03:44.062Z,55
2018-07-03T05:04:25.260Z,60
2018-07-03T05:05:06.563Z,60
2018-07-03T05:05:47.722Z,60
2018-07-03T05:06:28.736Z,60
2018-07-03T05:07:10.313Z,80
2018-07-03T05:07:51.495Z,310
2018-07-03T05:08:32.774Z,670
2018-07-03T05:09:13.933Z,1040
2018-07-03T05:09:55.043Z,1405
2018-07-03T05:10:36.299Z,1615
2018-07-03T05:11:17.382Z,1345
2018-07-03T05:11:58.489Z,830
2018-07-03T05:12:39.453Z,325
2018-07-03T05:13:20.560Z,65
2018-07-03T05:14:01.783Z,65
2018-07-03T05:14:42.813Z,65
2018-07-03T05:15:24.031Z,65
2018-07-03T05:16:05.111Z,65
2018-07-03T05:16:46.276Z,70
2018-07-03T05:17:27.405Z,70
2018-07-03T05:18:08.496Z,105
2018-07-03T05:18:49.499Z,345
2018-07-03T05:19:30.687Z,710
2018-07-03T05:20:11.894Z,1020
2018-07-03T05:20:52.953Z,1220
2018-07-03T05:21:34.022Z,1290
2018-07-03T05:22:15.056Z,1425
2018-07-03T05:22:56.204Z,1570
2018-07-03T05:23:37.262Z,1725
2018-07-03T05:24:18.357Z,1835
2018-07-03T05:24:59.504Z,1845
2018-07-03T05:25:40.699Z,1785
2018-07-03T05:26:21.832Z,1785
2018-07-03T05:27:02.956Z,1750
2018-07-03T05:27:43.929Z,1800
2018-07-03T05:28:24.890Z,1795
2018-07-03T05:29:05.824Z,1795
2018-07-03T05:29:46.899Z,1755
2018-07-03T05:30:27.922Z,1765
2018-07-03T05:31:09.008Z,1755
2018-07-03T05:31:50.844Z,1800
2018-07-03T05:32:32.696Z,1885
2018-07-03T05:33:13.805Z,1910
2018-07-03T05:33:54.645Z,1935
2018-07-03T05:34:36.387Z,1940
2018-07-03T05:35:17.505Z,1945
2018-07-03T05:35:58.551Z,1935
2018-07-03T05:36:40.878Z,1955
2018-07-03T05:37:21.893Z,1970
2018-07-03T05:38:02.838Z,1885
2018-07-03T05:38:43.963Z,1845
2018-07-03T05:39:25.089Z,1800
2018-07-03T05:40:06.112Z,1835
2018-07-03T05:40:47.098Z,1930
2018-07-03T05:41:28.236Z,1955
2018-07-03T05:42:10.107Z,1950
2018-07-03T05:42:51.242Z,2005
2018-07-03T05:43:32.381Z,2025
2018-07-03T05:44:13.326Z,2055
2018-07-03T05:44:54.532Z,1975
2018-07-03T05:45:35.677Z,2000
2018-07-03T05:46:16.668Z,2010
2018-07-03T05:46:57.599Z,2030
2018-07-03T05:47:38.592Z,1995
2018-07-03T05:48:19.682Z,2030
2018-07-03T05:49:01.395Z,2040
2018-07-03T05:49:43.455Z,2060
2018-07-03T05:50:25.376Z,2060
2018-07-03T05:51:07.178Z,2030
2018-07-03T05:51:48.336Z,1975
2018-07-03T05:52:29.303Z,1990
2018-07-03T05:53:10.312Z,1995
2018-07-03T05:53:51.454Z,1985
2018-07-03T05:54:32.437Z,1900
2018-07-03T05:55:13.509Z,1900
2018-07-03T05:55:54.556Z,1935
2018-07-03T05:56:35.686Z,1980
2018-07-03T05:57:16.673Z,2020
2018-07-03T05:57:58.636Z,2050
2018-07-03T05:58:39.706Z,1975
2018-07-03T05:59:21.250Z,1985
2018-07-03T06:00:02.320Z,2030
2018-07-03T06:00:43.435Z,2045
2018-07-03T06:01:24.485Z,2055
2018-07-03T06:02:05.627Z,2065
2018-07-03T06:02:46.529Z,1915
2018-07-03T06:03:27.662Z,1855
2018-07-03T06:04:09.453Z,1940
2018-07-03T06:04:51.499Z,1925
2018-07-03T06:05:32.637Z,1810
2018-07-03T06:06:13.755Z,1760
2018-07-03T06:06:54.903Z,1855
2018-07-03T06:07:35.992Z,1940
2018-07-03T06:08:17.057Z,1955
2018-07-03T06:08:58.107Z,1935
2018-07-03T06:09:39.278Z,2020
2018-07-03T06:10:20.307Z,2075
2018-07-03T06:11:01.928Z,2175
2018-07-03T06:11:43.207Z,2165
2018-07-03T06:12:24.143Z,2220
2018-07-03T06:13:05.138Z,2175
2018-07-03T06:13:46.233Z,2045
2018-07-03T06:14:27.288Z,2055
2018-07-03T06:15:08.374Z,2170
2018-07-03T06:15:49.559Z,2215
2018-07-03T06:16:30.765Z,2125
2018-07-03T06:17:11.912Z,2095
2018-07-03T06:17:52.897Z,2070
2018-07-03T06:18:33.973Z,2105
2018-07-03T06:19:15.065Z,2155
2018-07-03T06:19:56.044Z,2195
2018-07-03T06:20:37.134Z,2175
2018-07-03T06:21:18.153Z,2165
2018-07-03T06:21:59.342Z,2155
2018-07-03T06:22:40.275Z,2145
2018-07-03T06:23:21.377Z,2160
2018-07-03T06:24:02.390Z,2095
2018-07-03T06:24:44.560Z,2030
2018-07-03T06:25:25.544Z,2060
2018-07-03T06:26:06.501Z,2115
2018-07-03T06:26:47.648Z,2085
2018-07-03T06:27:29.542Z,1960
2018-07-03T06:28:10.409Z,1900
2018-07-03T06:28:51.417Z,2075
2018-07-03T06:29:32.478Z,2200
2018-07-03T06:30:13.545Z,2140
2018-07-03T06:30:54.682Z,2100
2018-07-03T06:31:35.700Z,2085
2018-07-03T06:32:17.562Z,2065
2018-07-03T06:32:58.708Z,1995
2018-07-03T06:33:40.534Z,2000
2018-07-03T06:34:21.541Z,2095
2018-07-03T06:35:02.657Z,2025
2018-07-03T06:35:43.751Z,2005
2018-07-03T06:36:24.993Z,2085
2018-07-03T06:37:06.132Z,2070
2018-07-03T06:37:47.092Z,2035
2018-07-03T06:38:28.473Z,2080
2018-07-03T06:39:10.555Z,2135
2018-07-03T06:39:52.459Z,2185
2018-07-03T06:40:33.559Z,2180
2018-07-03T06:41:14.597Z,2210
2018-07-03T06:41:55.900Z,2135
2018-07-03T06:42:36.866Z,1970
2018-07-03T06:43:17.880Z,1780
2018-07-03T06:43:59.081Z,1865
2018-07-03T06:44:41.027Z,2040
2018-07-03T06:45:22.099Z,2155
2018-07-03T06:46:03.289Z,2170
2018-07-03T06:46:44.401Z,2160
2018-07-03T06:47:25.610Z,2175
2018-07-03T06:48:06.962Z,2180
2018-07-03T06:48:48.099Z,2180
2018-07-03T06:49:29.297Z,2145
2018-07-03T06:50:10.547Z,2110
2018-07-03T06:50:51.962Z,2125
2018-07-03T06:51:33.172Z,2090
2018-07-03T06:52:14.652Z,2120
2018-07-03T06:52:56.919Z,2155
2018-07-03T06:53:39.032Z,2165
2018-07-03T06:54:20.184Z,2120
2018-07-03T06:55:02.029Z,2105
2018-07-03T06:55:43.124Z,2105
2018-07-03T06:56:24.310Z,2090
2018-07-03T06:57:05.479Z,2120
2018-07-03T06:57:46.420Z,2210
2018-07-03T06:58:28.450Z,2170
2018-07-03T06:59:09.785Z,2090
2018-07-03T06:59:51.022Z,1950
2018-07-03T07:00:33.007Z,2000
2018-07-03T07:01:13.951Z,2120
2018-07-03T07:01:55.170Z,2145
2018-07-03T07:02:36.269Z,2150
2018-07-03T07:03:17.267Z,2100
2018-07-03T07:03:58.937Z,2150
2018-07-03T07:04:39.988Z,2135
2018-07-03T07:05:21.939Z,2050
2018-07-03T07:06:03.014Z,1930
2018-07-03T07:06:44.686Z,1985
2018-07-03T07:07:25.603Z,2060
2018-07-03T07:08:06.884Z,2000
2018-07-03T07:08:47.926Z,1935
2018-07-03T07:09:29.029Z,1835
2018-07-03T07:10:10.059Z,1770
2018-07-03T07:10:51.784Z,1650
2018-07-03T07:11:32.950Z,1490
2018-07-03T07:12:14.144Z,1330
2018-07-03T07:12:55.207Z,1255
2018-07-03T07:13:37.035Z,1185
2018-07-03T07:14:18.382Z,1080
2018-07-03T07:14:59.617Z,1015
2018-07-03T07:15:40.714Z,950
2018-07-03T07:16:21.813Z,890
2018-07-03T07:17:03.021Z,835
2018-07-03T07:17:44.122Z,795
2018-07-03T07:18:25.256Z,765
2018-07-03T07:19:06.324Z,730
2018-07-03T07:19:47.407Z,705
2018-07-03T07:20:28.592Z,675
2018-07-03T07:21:10.404Z,645
2018-07-03T07:21:52.418Z,625
2018-07-03T07:22:34.049Z,610
2018-07-03T07:23:15.314Z,595
2018-07-03T07:23:56.409Z,580
2018-07-03T07:24:38.660Z,570
2018-07-03T07:25:20.568Z,565
2018-07-03T07:26:01.526Z,555
2018-07-03T07:26:43.256Z,555
2018-07-03T07:27:24.448Z,555
2018-07-03T07:28:05.712Z,555
2018-07-03T07:28:46.786Z,555
2018-07-03T07:29:27.857Z,545
2018-07-03T07:30:09.078Z,550
2018-07-03T07:30:50.796Z,565
2018-07-03T07:31:31.838Z,565
2018-07-03T07:32:12.711Z,570
2018-07-03T07:32:53.651Z,560
2018-07-03T07:33:35.271Z,560
2018-07-03T07:34:16.352Z,555
2018-07-03T07:34:57.284Z,550
2018-07-03T07:35:38.240Z,550
2018-07-03T07:36:19.362Z,545
2018-07-03T07:37:00.294Z,545
2018-07-03T07:37:42.333Z,545
2018-07-03T07:38:23.347Z,540
2018-07-03T07:39:04.580Z,535
2018-07-03T07:39:45.663Z,530
2018-07-03T07:40:26.857Z,530
2018-07-03T07:41:08.158Z,530
2018-07-03T07:41:49.144Z,525
2018-07-03T07:42:30.361Z,530
2018-07-03T07:43:11.452Z,525
2018-07-03T07:43:52.728Z,525
2018-07-03T07:44:34.016Z,520
2018-07-03T07:45:15.051Z,520
2018-07-03T07:45:57.008Z,520
2018-07-03T07:46:37.907Z,515
2018-07-03T07:47:18.936Z,515
2018-07-03T07:47:59.885Z,520
2018-07-03T07:48:40.937Z,520
2018-07-03T07:49:21.958Z,520
2018-07-03T07:50:03.083Z,520
2018-07-03T07:50:44.011Z,530
2018-07-03T07:51:25.960Z,535
2018-07-03T07:52:07.077Z,540
2018-07-03T07:52:48.278Z,535
2018-07-03T07:53:29.393Z,530
2018-07-03T07:54:10.592Z,525
2018-07-03T07:54:51.702Z,525
2018-07-03T07:55:35.114Z,530
2018-07-03T07:56:16.391Z,525
2018-07-03T07:56:57.693Z,525
2018-07-03T07:57:38.812Z,525
2018-07-03T07:58:20.036Z,520
2018-07-03T07:59:01.237Z,510
2018-07-03T07:59:42.263Z,500
2018-07-03T08:00:24.153Z,490
2018-07-03T08:01:05.255Z,480
2018-07-03T08:01:46.272Z,465
2018-07-03T08:02:27.262Z,450
2018-07-03T08:03:08.379Z,425
2018-07-03T08:03:49.415Z,380
2018-07-03T08:04:30.490Z,345
2018-07-03T08:05:11.335Z,330
2018-07-03T08:05:52.329Z,325
2018-07-03T08:06:33.555Z,325
2018-07-03T08:07:14.601Z,315
2018-07-03T08:07:55.723Z,315
2018-07-03T08:08:36.901Z,310
2018-07-03T08:09:18.114Z,305
2018-07-03T08:09:59.162Z,305
2018-07-03T08:10:40.281Z,305
2018-07-03T08:11:21.471Z,305
2018-07-03T08:12:02.666Z,305
2018-07-03T08:12:43.926Z,300
2018-07-03T08:13:25.025Z,300
2018-07-03T08:14:06.162Z,295
2018-07-03T08:14:47.319Z,300
2018-07-03T08:15:28.241Z,290
2018-07-03T08:16:09.336Z,285
2018-07-03T08:16:50.477Z,285
2018-07-03T08:17:31.635Z,280
2018-07-03T08:18:12.782Z,280
2018-07-03T08:18:54.808Z,275
2018-07-03T08:19:35.940Z,275
2018-07-03T08:20:17.139Z,270
2018-07-03T08:20:58.246Z,265
2018-07-03T08:21:39.413Z,260
2018-07-03T08:22:20.669Z,255
2018-07-03T08:23:01.639Z,250
2018-07-03T08:23:42.616Z,250
2018-07-03T08:24:23.801Z,245
2018-07-03T08:25:04.839Z,240
2018-07-03T08:25:46.026Z,235
2018-07-03T08:26:27.202Z,235
2018-07-03T08:27:08.453Z,235
2018-07-03T08:27:49.600Z,230
2018-07-03T08:28:30.787Z,225
2018-07-03T08:29:12.794Z,225
2018-07-03T08:29:54.024Z,220
2018-07-03T08:30:35.961Z,215
2018-07-03T08:31:17.160Z,215
2018-07-03T08:31:58.191Z,210
2018-07-03T08:32:39.341Z,210
2018-07-03T08:33:20.503Z,205
2018-07-03T08:34:01.776Z,200
2018-07-03T08:34:42.947Z,200
2018-07-03T08:35:24.165Z,195
2018-07-03T08:36:05.071Z,195
2018-07-03T08:36:46.760Z,190
2018-07-03T08:37:28.717Z,190
2018-07-03T08:38:09.816Z,185
2018-07-03T08:38:51.567Z,185
2018-07-03T08:39:32.788Z,185
2018-07-03T08:40:14.569Z,185
2018-07-03T08:40:55.635Z,180
2018-07-03T08:41:36.892Z,180
2018-07-03T08:42:18.115Z,175
2018-07-03T08:42:59.192Z,175
2018-07-03T08:43:40.381Z,170
2018-07-03T08:44:21.487Z,170
2018-07-03T08:45:02.757Z,170
2018-07-03T08:45:43.934Z,165
2018-07-03T08:46:25.158Z,170
2018-07-03T08:47:06.328Z,165
2018-07-03T08:47:47.962Z,160
2018-07-03T08:48:29.224Z,160
2018-07-03T08:49:10.308Z,160
2018-07-03T08:49:51.440Z,155
2018-07-03T08:50:32.544Z,155
2018-07-03T08:51:15.368Z,155
2018-07-03T08:51:57.025Z,150
2018-07-03T08:52:38.848Z,150
2018-07-03T08:53:20.092Z,145
2018-07-03T08:54:01.161Z,145
2018-07-03T08:54:42.249Z,145
2018-07-03T08:55:23.310Z,145
2018-07-03T08:56:04.464Z,140
2018-07-03T08:56:45.583Z,140
2018-07-03T08:57:26.792Z,140
2018-07-03T08:58:07.936Z,135
2018-07-03T08:58:48.895Z,135
2018-07-03T08:59:29.785Z,135
2018-07-03T09:00:11.786Z,135
2018-07-03T09:00:53.540Z,135
2018-07-03T09:01:34.640Z,135
2018-07-03T09:02:15.701Z,130
2018-07-03T09:02:56.785Z,130
2018-07-03T09:03:37.911Z,130
2018-07-03T09:04:19.887Z,130
2018-07-03T09:05:00.965Z,130
2018-07-03T09:05:41.975Z,130
2018-07-03T09:06:23.032Z,125
2018-07-03T09:07:03.892Z,125
2018-07-03T09:07:44.682Z,125
2018-07-03T09:08:25.711Z,125
2018-07-03T09:09:06.649Z,120
2018-07-03T09:09:47.688Z,120
2018-07-03T09:10:28.552Z,120
2018-07-03T09:11:09.696Z,115
2018-07-03T09:11:50.593Z,115
2018-07-03T09:12:31.719Z,115
2018-07-03T09:13:12.688Z,115
2018-07-03T09:13:55.543Z,110
2018-07-03T09:14:37.121Z,110
2018-07-03T09:15:18.141Z,110
2018-07-03T09:15:59.324Z,110
2018-07-03T09:16:41.032Z,110
2018-07-03T09:17:22.131Z,105
2018-07-03T09:18:03.235Z,105
2018-07-03T09:18:44.103Z,105
2018-07-03T09:19:24.904Z,105
2018-07-03T09:20:05.693Z,105
2018-07-03T09:20:47.673Z,105
2018-07-03T09:21:28.823Z,105
2018-07-03T09:22:10.691Z,105
2018-07-03T09:22:51.850Z,105
2018-07-03T09:23:33.687Z,100
2018-07-03T09:24:14.854Z,100
2018-07-03T09:24:55.960Z,100
2018-07-03T09:25:37.888Z,100
2018-07-03T09:26:18.994Z,100
2018-07-03T09:27:00.235Z,100
2018-07-03T09:27:42.333Z,100
2018-07-03T09:28:24.345Z,100
2018-07-03T09:29:05.502Z,100
2018-07-03T09:29:46.638Z,100
2018-07-03T09:30:27.737Z,100
2018-07-03T09:31:08.824Z,100
2018-07-03T09:31:49.967Z,100
2018-07-03T09:32:31.002Z,100
2018-07-03T09:33:12.157Z,100
2018-07-03T09:33:53.789Z,100
2018-07-03T09:34:34.842Z,100
2018-07-03T09:35:16.055Z,100
2018-07-03T09:35:57.074Z,95
2018-07-03T09:36:38.137Z,95
2018-07-03T09:37:19.238Z,95
2018-07-03T09:38:00.497Z,95
2018-07-03T09:38:41.528Z,95
2018-07-03T09:39:22.546Z,95
2018-07-03T09:40:04.354Z,95
2018-07-03T09:40:46.162Z,95
2018-07-03T09:41:28.028Z,95